createdAt,value
2022-11-02T00:00:49.429Z,102094.48
2022-11-02T00:03:17.638Z,102094.33
2022-11-02T00:05:45.515Z,102095.39
2022-11-02T00:08:13.095Z,102087.30
2022-11-02T00:10:40.950Z,102092.64
2022-11-02T00:13:08.962Z,102092.79
2022-11-02T00:15:38.045Z,102097.59
2022-11-02T00:18:13.250Z,102092.48
2022-11-02T00:20:43.712Z,102093.59
2022-11-02T00:23:15.552Z,102095.72
2022-11-02T00:25:49.935Z,102095.02
2022-11-02T00:28:17.954Z,102094.23
2022-11-02T00:30:46.909Z,102093.95
2022-11-02T00:33:17.357Z,102089.36
2022-11-02T00:38:29.388Z,102087.83
2022-11-02T00:40:57.126Z,102084.64
2022-11-02T00:43:25.092Z,102082.29
2022-11-02T00:45:53.111Z,102082.56
2022-11-02T00:48:26.269Z,102080.90
2022-11-02T00:50:57.294Z,102081.17
2022-11-02T00:53:25.966Z,102079.30
2022-11-02T00:55:54.557Z,102077.86
2022-11-02T00:58:23.287Z,102076.95
2022-11-02T01:00:57.710Z,102074.13
2022-11-02T01:03:29.750Z,102074.34
2022-11-02T01:05:57.621Z,102069.39
2022-11-02T01:08:25.204Z,102064.79
2022-11-02T01:10:53.699Z,102064.73
2022-11-02T01:13:22.266Z,102062.23
2022-11-02T01:15:51.367Z,102062.56
2022-11-02T01:18:19.157Z,102060.44
2022-11-02T01:20:47.054Z,102058.94
2022-11-02T01:23:14.796Z,102056.53
2022-11-02T01:25:47.457Z,102055.52
2022-11-02T01:28:15.608Z,102054.88
2022-11-02T01:30:44.156Z,102053.73
2022-11-02T01:33:13.506Z,102052.73
2022-11-02T01:35:42.318Z,102051.02
2022-11-02T01:38:13.224Z,102049.55
2022-11-02T01:40:42.460Z,102046.60
2022-11-02T01:43:24.455Z,102049.80
2022-11-02T01:46:00.496Z,102048.31
2022-11-02T01:48:56.521Z,102048.42
2022-11-02T01:52:00.246Z,102043.09
2022-11-02T01:54:31.777Z,102046.88
2022-11-02T01:57:05.903Z,102043.41
2022-11-02T01:59:48.109Z,102038.92
2022-11-02T02:02:50.109Z,102037.96
2022-11-02T02:05:21.757Z,102032.48
2022-11-02T02:07:52.294Z,102035.27
2022-11-02T02:10:23.874Z,102034.19
2022-11-02T02:12:52.160Z,102031.59
2022-11-02T02:15:28.065Z,102031.90
2022-11-02T02:18:13.028Z,102030.68
2022-11-02T02:20:56.097Z,102030.26
2022-11-02T02:23:42.363Z,102030.09
2022-11-02T02:26:18.940Z,102027.85
2022-11-02T02:28:59.661Z,102023.54
2022-11-02T02:32:03.184Z,102027.21
2022-11-02T02:34:58.429Z,102027.11
2022-11-02T02:37:41.416Z,102023.08
2022-11-02T02:40:20.069Z,102024.61
2022-11-02T02:42:55.318Z,102023.88
2022-11-02T02:45:52.341Z,102024.25
2022-11-02T02:48:26.016Z,102020.14
2022-11-02T02:51:15.411Z,102022.59
2022-11-02T02:53:48.931Z,102021.58
2022-11-02T02:56:22.229Z,102025.14
2022-11-02T02:59:24.247Z,102022.20
2022-11-02T03:01:55.757Z,102023.11
2022-11-02T03:04:25.221Z,102022.55
2022-11-02T03:06:57.472Z,102021.95
2022-11-02T03:09:44.673Z,102019.91
2022-11-02T03:12:37.121Z,102020.55
2022-11-02T03:15:23.471Z,102016.66
2022-11-02T03:18:16.757Z,102015.55
2022-11-02T03:20:56.310Z,102015.54
2022-11-02T03:23:36.354Z,102016.23
2022-11-02T03:26:30.460Z,102019.67
2022-11-02T03:29:35.206Z,102018.61
2022-11-02T03:32:13.957Z,102019.73
2022-11-02T03:34:48.176Z,102024.11
2022-11-02T03:37:28.635Z,102022.66
2022-11-02T03:40:06.694Z,102025.23
2022-11-02T03:42:37.287Z,102031.40
2022-11-02T03:45:18.010Z,102029.31
2022-11-02T03:47:51.026Z,102030.70
2022-11-02T03:50:24.104Z,102032.63
2022-11-02T03:53:00.763Z,102037.41
2022-11-02T03:55:42.046Z,102039.10
2022-11-02T03:58:13.834Z,102034.68
2022-11-02T04:00:56.431Z,102034.89
2022-11-02T04:03:25.591Z,102035.53
2022-11-02T04:05:54.751Z,102037.73
2022-11-02T04:08:37.868Z,102037.98
2022-11-02T04:11:27.714Z,102038.90
2022-11-02T04:14:18.015Z,102043.15
2022-11-02T04:16:46.063Z,102043.42
2022-11-02T04:19:39.695Z,102043.79
2022-11-02T04:22:26.978Z,102040.28
2022-11-02T04:25:19.106Z,102041.71
2022-11-02T04:27:54.044Z,102042.77
2022-11-02T04:30:31.710Z,102043.58
2022-11-02T04:33:19.091Z,102048.16
2022-11-02T04:35:54.758Z,102048.27
2022-11-02T04:38:41.535Z,102049.25
2022-11-02T04:41:40.524Z,102051.65
2022-11-02T04:44:16.578Z,102054.15
2022-11-02T04:46:49.352Z,102057.56
2022-11-02T04:49:22.141Z,102056.06
2022-11-02T04:54:32.262Z,102053.40
2022-11-02T04:57:02.535Z,102057.02
2022-11-02T04:59:30.822Z,102054.32
2022-11-02T05:01:59.053Z,102058.96
2022-11-02T05:04:28.166Z,102062.23
2022-11-02T05:07:01.274Z,102061.54
2022-11-02T05:09:31.519Z,102063.02
2022-11-02T05:12:05.677Z,102064.98
2022-11-02T05:14:35.804Z,102067.39
2022-11-02T05:17:04.423Z,102068.55
2022-11-02T05:19:33.090Z,102070.84
2022-11-02T05:22:02.771Z,102072.17
2022-11-02T05:24:30.705Z,102075.62
2022-11-02T05:27:00.839Z,102075.04
2022-11-02T05:29:32.404Z,102072.79
2022-11-02T05:32:00.509Z,102078.13
2022-11-02T05:34:36.245Z,102077.98
2022-11-02T05:37:07.504Z,102079.52
2022-11-02T05:39:35.032Z,102082.65
2022-11-02T05:42:03.814Z,102083.77
2022-11-02T05:44:32.080Z,102088.20
2022-11-02T05:46:59.839Z,102087.46
2022-11-02T05:49:27.727Z,102090.27
2022-11-02T05:51:56.276Z,102089.52
2022-11-02T05:54:24.939Z,102093.88
2022-11-02T05:56:52.598Z,102093.09
2022-11-02T05:59:20.372Z,102096.06
2022-11-02T06:01:48.397Z,102100.40
2022-11-02T06:04:16.811Z,102103.11
2022-11-02T06:06:45.062Z,102105.73
2022-11-02T06:09:17.524Z,102104.77
2022-11-02T06:11:46.362Z,102107.16
2022-11-02T06:14:15.469Z,102110.80
2022-11-02T06:16:53.345Z,102114.47
2022-11-02T06:19:22.132Z,102116.33
2022-11-02T06:21:51.006Z,102120.95
2022-11-02T06:24:20.404Z,102123.56
2022-11-02T06:26:49.924Z,102125.12
2022-11-02T06:29:21.429Z,102130.62
2022-11-02T06:31:58.174Z,102131.70
2022-11-02T06:34:27.982Z,102134.36
2022-11-02T06:36:56.931Z,102137.99
2022-11-02T06:39:27.126Z,102137.95
2022-11-02T06:41:57.564Z,102142.43
2022-11-02T06:44:26.366Z,102144.06
2022-11-02T06:46:58.921Z,102152.44
2022-11-02T06:49:28.688Z,102153.99
2022-11-02T06:51:56.278Z,102160.33
2022-11-02T06:54:27.463Z,102160.34
2022-11-02T06:56:56.550Z,102163.22
2022-11-02T06:59:24.578Z,102165.42
2022-11-02T07:05:04.025Z,102166.27
2022-11-02T07:07:32.612Z,102169.34
2022-11-02T07:10:01.160Z,102170.95
2022-11-02T07:12:31.004Z,102169.83
2022-11-02T07:14:59.644Z,102170.64
2022-11-02T07:17:32.009Z,102170.63
2022-11-02T07:20:00.125Z,102170.89
2022-11-02T07:22:34.816Z,102169.61
2022-11-02T07:25:03.042Z,102171.61
2022-11-02T07:27:42.658Z,102171.65
2022-11-02T07:30:13.943Z,102175.34
2022-11-02T07:32:43.878Z,102178.00
2022-11-02T07:35:13.901Z,102176.56
2022-11-02T07:37:41.781Z,102178.23
2022-11-02T07:40:11.203Z,102180.40
2022-11-02T07:42:54.166Z,102177.78
2022-11-02T07:46:32.440Z,102180.86
2022-11-02T07:49:00.907Z,102186.23
2022-11-02T07:51:28.756Z,102187.47
2022-11-02T07:53:58.650Z,102182.80
2022-11-02T07:56:36.688Z,102181.30
2022-11-02T07:59:04.519Z,102181.14
2022-11-02T08:01:42.193Z,102175.70
2022-11-02T08:04:11.181Z,102178.42
2022-11-02T08:06:40.622Z,102177.68
2022-11-02T08:09:15.127Z,102177.20
2022-11-02T08:11:44.698Z,102176.50
2022-11-02T08:14:12.654Z,102177.23
2022-11-02T08:16:43.678Z,102177.54
2022-11-02T08:21:53.552Z,102174.64
2022-11-02T08:24:21.341Z,102172.88
2022-11-02T08:26:52.317Z,102174.00
2022-11-02T08:29:25.779Z,102169.78
2022-11-02T08:31:56.907Z,102168.86
2022-11-02T08:34:24.786Z,102169.54
2022-11-02T08:36:52.718Z,102173.21
2022-11-02T08:39:20.683Z,102171.57
2022-11-02T08:44:40.020Z,102172.95
2022-11-02T08:47:15.973Z,102170.23
2022-11-02T08:50:09.827Z,102171.15
2022-11-02T08:52:40.690Z,102174.34
2022-11-02T08:55:10.473Z,102173.44
2022-11-02T08:57:58.860Z,102179.10
2022-11-02T09:00:32.550Z,102178.46
2022-11-02T09:03:05.850Z,102179.91
2022-11-02T09:05:36.970Z,102181.71
2022-11-02T09:08:11.792Z,102179.25
2022-11-02T09:10:41.294Z,102184.73
2022-11-02T09:13:12.860Z,102178.55
2022-11-02T09:15:41.084Z,102176.95
2022-11-02T09:18:09.839Z,102180.77
2022-11-02T09:20:41.145Z,102179.70
2022-11-02T09:23:09.234Z,102178.57
2022-11-02T09:25:37.369Z,102178.20
2022-11-02T09:28:07.245Z,102178.03
2022-11-02T09:30:35.081Z,102177.45
2022-11-02T09:33:07.916Z,102177.12
2022-11-02T09:35:41.511Z,102174.34
2022-11-02T09:38:09.888Z,102174.02
2022-11-02T09:40:45.842Z,102176.25
2022-11-02T09:43:46.015Z,102171.93
2022-11-02T09:46:22.321Z,102172.86
2022-11-02T09:48:58.551Z,102175.04
2022-11-02T09:51:34.453Z,102171.99
2022-11-02T09:54:22.511Z,102173.60
2022-11-02T09:56:53.243Z,102169.06
2022-11-02T09:59:25.542Z,102167.88
2022-11-02T10:01:59.186Z,102166.45
2022-11-02T10:04:53.007Z,102164.27
2022-11-02T10:07:45.992Z,102160.48
2022-11-02T10:10:40.622Z,102159.04
2022-11-02T10:13:25.109Z,102159.42
2022-11-02T10:16:01.970Z,102157.57
2022-11-02T10:18:30.882Z,102154.80
2022-11-02T10:21:12.116Z,102155.70
2022-11-02T10:23:51.466Z,102152.52
2022-11-02T10:26:30.286Z,102149.22
2022-11-02T10:29:18.867Z,102148.63
2022-11-02T10:31:47.222Z,102148.25
2022-11-02T10:34:24.747Z,102141.16
2022-11-02T10:37:12.811Z,102139.29
2022-11-02T10:40:07.983Z,102140.25
2022-11-02T10:42:40.955Z,102136.52
2022-11-02T10:45:41.924Z,102129.80
2022-11-02T10:48:21.569Z,102127.64
2022-11-02T10:51:18.822Z,102125.20
2022-11-02T10:53:50.052Z,102123.44
2022-11-02T10:56:25.229Z,102121.94
2022-11-02T10:59:14.131Z,102118.16
2022-11-02T11:02:00.567Z,102115.13
2022-11-02T11:04:36.291Z,102119.96
2022-11-02T11:07:17.951Z,102117.02
2022-11-02T11:10:16.086Z,102111.80
2022-11-02T11:16:11.496Z,102103.42
2022-11-02T11:21:44.488Z,102096.20
2022-11-02T11:24:20.703Z,102094.02
2022-11-02T11:30:46.183Z,102090.08
2022-11-02T11:33:21.984Z,102088.26
2022-11-02T11:35:51.621Z,102086.02
2022-11-02T11:38:27.731Z,102082.71
2022-11-02T11:41:00.060Z,102085.59
2022-11-02T11:43:31.223Z,102078.86
2022-11-02T11:46:06.849Z,102077.69
2022-11-02T11:48:43.104Z,102078.06
2022-11-02T11:51:38.246Z,102069.48
2022-11-02T11:54:29.118Z,102068.48
2022-11-02T11:57:22.538Z,102067.09
2022-11-02T11:59:53.602Z,102063.90
2022-11-02T12:02:25.814Z,102063.43
2022-11-02T12:05:08.889Z,102057.86
2022-11-02T12:08:04.915Z,102054.77
2022-11-02T12:14:08.909Z,102047.11
2022-11-02T12:16:57.127Z,102045.98
2022-11-02T12:19:50.795Z,102044.67
2022-11-02T12:22:39.281Z,102039.58
2022-11-02T12:25:12.969Z,102034.83
2022-11-02T12:28:14.917Z,102033.61
2022-11-02T12:31:20.137Z,102034.25
2022-11-02T12:34:12.293Z,102029.67
2022-11-02T12:37:39.035Z,102026.10
2022-11-02T12:40:32.373Z,102021.73
2022-11-02T12:43:08.986Z,102018.90
2022-11-02T12:45:58.593Z,102019.38
2022-11-02T12:48:57.552Z,102017.67
2022-11-02T12:51:34.180Z,102016.08
2022-11-02T12:54:12.823Z,102015.06
2022-11-02T12:56:48.008Z,102014.05
2022-11-02T12:59:42.099Z,102010.96
2022-11-02T13:02:35.472Z,102009.30
2022-11-02T13:05:25.879Z,102008.14
2022-11-02T13:08:10.504Z,102007.19
2022-11-02T13:10:57.080Z,102006.53
2022-11-02T13:17:48.961Z,102004.92
2022-11-02T13:20:20.151Z,102007.76
2022-11-02T13:22:57.408Z,102004.66
2022-11-02T13:25:45.258Z,102003.11
2022-11-02T13:28:41.307Z,101999.72
2022-11-02T13:31:33.332Z,101998.54
2022-11-02T13:34:06.770Z,101997.20
2022-11-02T13:36:39.151Z,101988.52
2022-11-02T13:39:06.860Z,101987.39
2022-11-02T13:41:52.796Z,101989.54
2022-11-02T13:44:58.340Z,101986.45
2022-11-02T13:47:45.761Z,101987.66
2022-11-02T13:50:36.785Z,101984.73
2022-11-02T13:53:09.562Z,101983.61
2022-11-02T13:56:00.067Z,101981.43
2022-11-02T13:58:37.988Z,101985.11
2022-11-02T14:01:09.171Z,101983.19
2022-11-02T14:03:55.033Z,101983.63
2022-11-02T14:06:27.055Z,101983.78
2022-11-02T14:09:03.445Z,101983.36
2022-11-02T14:11:34.345Z,101981.30
2022-11-02T14:14:02.102Z,101984.65
2022-11-02T14:16:49.495Z,101984.80
2022-11-02T14:19:20.712Z,101984.81
2022-11-02T14:21:50.709Z,101985.02
2022-11-02T14:24:44.993Z,101982.36
2022-11-02T14:27:12.704Z,101981.92
2022-11-02T14:29:45.483Z,101984.87
2022-11-02T14:32:35.155Z,101987.95
2022-11-02T14:35:05.759Z,101990.67
2022-11-02T14:37:50.228Z,101990.46
2022-11-02T14:40:28.567Z,101991.26
2022-11-02T14:43:09.442Z,101989.50
2022-11-02T14:46:03.559Z,101988.80
2022-11-02T14:48:45.472Z,101981.13
2022-11-02T14:51:21.162Z,101983.68
2022-11-02T14:53:56.863Z,101981.98
2022-11-02T14:56:25.615Z,101984.13
2022-11-02T14:58:57.903Z,101981.23
2022-11-02T15:01:26.205Z,101979.33
2022-11-02T15:03:57.443Z,101979.86
2022-11-02T15:06:28.316Z,101981.77
2022-11-02T15:09:06.618Z,101982.05
2022-11-02T15:11:51.452Z,101975.48
2022-11-02T15:14:54.572Z,101978.23
2022-11-02T15:17:25.127Z,101975.52
2022-11-02T15:20:13.538Z,101976.34
2022-11-02T15:22:50.471Z,101976.48
2022-11-02T15:25:44.153Z,101972.55
2022-11-02T15:28:20.258Z,101975.05
2022-11-02T15:30:51.912Z,101975.37
2022-11-02T15:33:40.590Z,101973.70
2022-11-02T15:36:16.930Z,101972.90
2022-11-02T15:38:52.303Z,101976.97
2022-11-02T15:41:37.006Z,101972.64
2022-11-02T15:44:49.913Z,101974.55
2022-11-02T15:47:32.540Z,101978.23
2022-11-02T15:50:18.658Z,101976.52
2022-11-02T15:53:23.676Z,101973.96
2022-11-02T15:56:10.258Z,101975.83
2022-11-02T15:59:25.796Z,101974.88
2022-11-02T16:02:28.857Z,101976.67
2022-11-02T16:05:08.930Z,101974.17
2022-11-02T16:07:57.469Z,101976.52
2022-11-02T16:10:35.292Z,101977.64
2022-11-02T16:13:20.189Z,101974.70
2022-11-02T16:15:49.622Z,101977.59
2022-11-02T16:18:40.193Z,101974.39
2022-11-02T16:24:29.830Z,101975.08
2022-11-02T16:27:01.758Z,101976.09
2022-11-02T16:29:43.233Z,101979.65
2022-11-02T16:32:12.983Z,101975.34
2022-11-02T16:34:42.767Z,101980.52
2022-11-02T16:37:15.165Z,101983.88
2022-11-02T16:39:47.279Z,101983.14
2022-11-02T16:42:23.462Z,101982.82
2022-11-02T16:45:03.653Z,101985.27
2022-11-02T16:51:15.278Z,101985.90
2022-11-02T16:53:44.358Z,101985.27
2022-11-02T16:56:34.301Z,101986.48
2022-11-02T16:59:15.556Z,101989.36
2022-11-02T17:01:49.291Z,101995.29
2022-11-02T17:04:30.185Z,102000.18
2022-11-02T17:07:10.330Z,101997.11
2022-11-02T17:09:39.492Z,102000.55
2022-11-02T17:12:31.330Z,101996.56
2022-11-02T17:15:01.691Z,101994.85
2022-11-02T17:17:37.618Z,102000.14
2022-11-02T17:20:23.651Z,102002.14
2022-11-02T17:22:57.634Z,102002.85
2022-11-02T17:25:36.470Z,102003.75
2022-11-02T17:28:42.711Z,102002.43
2022-11-02T17:31:37.665Z,102006.10
2022-11-02T17:34:11.901Z,102007.97
2022-11-02T17:36:50.467Z,102010.69
2022-11-02T17:39:23.154Z,102012.11
2022-11-02T17:45:39.092Z,102016.38
2022-11-02T17:48:08.564Z,102020.27
2022-11-02T17:50:40.717Z,102020.42
2022-11-02T17:53:12.510Z,102019.68
2022-11-02T17:55:45.763Z,102024.80
2022-11-02T17:58:21.873Z,102023.32
2022-11-02T18:00:54.651Z,102024.64
2022-11-02T18:03:34.175Z,102023.68
2022-11-02T18:06:10.543Z,102022.61
2022-11-02T18:08:57.383Z,102021.66
2022-11-02T18:11:26.665Z,102023.52
2022-11-02T18:13:57.497Z,102023.14
2022-11-02T18:16:32.625Z,102023.64
2022-11-02T18:19:02.795Z,102024.38
2022-11-02T18:21:30.861Z,102026.52
2022-11-02T18:24:02.030Z,102027.46
2022-11-02T18:26:33.075Z,102025.76
2022-11-02T18:29:04.598Z,102027.08
2022-11-02T18:31:33.699Z,102025.27
2022-11-02T18:34:05.585Z,102023.77
2022-11-02T18:36:33.755Z,102027.10
2022-11-02T18:41:45.855Z,102028.48
2022-11-02T18:44:15.790Z,102029.77
2022-11-02T18:46:50.392Z,102030.58
2022-11-02T18:49:18.444Z,102033.45
2022-11-02T18:51:46.417Z,102031.32
2022-11-02T18:54:15.325Z,102033.45
2022-11-02T18:56:44.363Z,102033.19
2022-11-02T18:59:14.682Z,102031.70
2022-11-02T19:01:42.681Z,102027.75
2022-11-02T19:04:17.560Z,102029.67
2022-11-02T19:07:08.250Z,102034.47
2022-11-02T19:09:50.662Z,102033.19
2022-11-02T19:12:30.268Z,102035.85
2022-11-02T19:14:59.190Z,102036.48
2022-11-02T19:17:27.302Z,102034.99
2022-11-02T19:20:06.726Z,102038.24
2022-11-02T19:22:37.066Z,102039.27
2022-11-02T19:25:11.648Z,102036.21
2022-11-02T19:27:41.221Z,102041.13
2022-11-02T19:30:12.827Z,102036.91
2022-11-02T19:32:43.644Z,102036.85
2022-11-02T19:35:21.866Z,102036.48
2022-11-02T19:37:50.397Z,102036.21
2022-11-02T19:43:05.321Z,102036.80
2022-11-02T19:45:33.916Z,102037.71
2022-11-02T19:48:05.177Z,102038.14
2022-11-02T19:50:37.221Z,102037.55
2022-11-02T19:53:11.150Z,102035.27
2022-11-02T19:55:45.050Z,102034.24
2022-11-02T19:58:25.164Z,102037.27
2022-11-02T20:00:54.102Z,102036.26
2022-11-02T20:03:24.049Z,102036.53
2022-11-02T20:06:01.460Z,102036.12
2022-11-02T20:08:33.547Z,102037.87
2022-11-02T20:11:34.766Z,102038.83
2022-11-02T20:14:10.226Z,102035.69
2022-11-02T20:17:04.320Z,102037.98
2022-11-02T20:19:42.306Z,102032.38
2022-11-02T20:22:10.188Z,102033.48
2022-11-02T20:24:41.163Z,102034.28
2022-11-02T20:27:18.146Z,102035.68
2022-11-02T20:29:47.010Z,102037.34
2022-11-02T20:32:23.107Z,102037.28
2022-11-02T20:34:54.540Z,102037.67
2022-11-02T20:37:23.631Z,102040.69
2022-11-02T20:40:14.708Z,102039.90
2022-11-02T20:42:43.251Z,102036.33
2022-11-02T20:45:10.820Z,102035.46
2022-11-02T20:47:50.716Z,102034.88
2022-11-02T20:50:24.800Z,102037.55
2022-11-02T20:55:44.286Z,102037.88
2022-11-02T20:58:15.866Z,102037.18
2022-11-02T21:00:48.675Z,102038.88
2022-11-02T21:03:20.869Z,102039.46
2022-11-02T21:05:50.982Z,102039.61
2022-11-02T21:08:24.911Z,102037.91
2022-11-02T21:11:03.349Z,102036.42
2022-11-02T21:14:06.597Z,102040.58
2022-11-02T21:16:42.169Z,102042.02
2022-11-02T21:19:11.272Z,102036.16
2022-11-02T21:21:39.504Z,102039.40
2022-11-02T21:24:07.419Z,102037.69
2022-11-02T21:26:35.064Z,102035.08
2022-11-02T21:29:05.172Z,102037.52
2022-11-02T21:31:35.693Z,102038.09
2022-11-02T21:34:05.633Z,102038.20
2022-11-02T21:36:37.938Z,102040.61
2022-11-02T21:39:09.298Z,102040.13
2022-11-02T21:41:39.482Z,102041.77
2022-11-02T21:44:09.941Z,102035.60
2022-11-02T21:46:38.252Z,102038.94
2022-11-02T21:49:08.791Z,102038.09
2022-11-02T21:51:39.483Z,102040.42
2022-11-02T21:54:08.113Z,102037.16
2022-11-02T21:56:45.061Z,102039.46
2022-11-02T21:59:15.304Z,102040.48
2022-11-02T22:01:46.013Z,102042.52
2022-11-02T22:04:25.841Z,102037.55
2022-11-02T22:06:58.145Z,102036.11
2022-11-02T22:09:29.964Z,102036.80
2022-11-02T22:12:18.907Z,102038.18
2022-11-02T22:14:48.686Z,102040.65
2022-11-02T22:17:35.400Z,102037.65
2022-11-02T22:20:07.864Z,102038.77
2022-11-02T22:22:37.063Z,102036.50
2022-11-02T22:25:06.450Z,102034.52
2022-11-02T22:27:34.217Z,102034.63
2022-11-02T22:30:09.289Z,102034.73
2022-11-02T22:32:37.444Z,102035.27
2022-11-02T22:38:06.779Z,102032.98
2022-11-02T22:40:34.671Z,102032.33
2022-11-02T22:43:03.758Z,102030.85
2022-11-02T22:45:32.044Z,102032.03
2022-11-02T22:47:59.764Z,102030.96
2022-11-02T22:50:28.855Z,102030.38
2022-11-02T22:53:01.270Z,102032.61
2022-11-02T22:55:32.210Z,102033.38
2022-11-02T22:58:00.412Z,102032.30
2022-11-02T23:00:28.453Z,102029.80
2022-11-02T23:03:01.371Z,102026.75
2022-11-02T23:05:31.765Z,102027.38
2022-11-02T23:07:59.702Z,102023.71
2022-11-02T23:10:48.152Z,102025.91
2022-11-02T23:13:22.734Z,102024.56
2022-11-02T23:15:51.325Z,102025.57
2022-11-02T23:18:39.835Z,102021.30
2022-11-02T23:21:10.875Z,102024.48
2022-11-02T23:23:58.000Z,102023.48
2022-11-02T23:26:28.087Z,102022.95
2022-11-02T23:29:18.614Z,102022.02
2022-11-02T23:32:06.403Z,102022.61
2022-11-02T23:34:34.722Z,102016.83
2022-11-02T23:37:12.435Z,102013.66
2022-11-02T23:39:51.180Z,102017.77
2022-11-02T23:42:19.356Z,102019.67
2022-11-02T23:44:47.295Z,102019.69
2022-11-02T23:47:15.438Z,102018.61
2022-11-02T23:49:55.006Z,102023.94
2022-11-02T23:52:41.540Z,102018.24
2022-11-02T23:55:32.134Z,102015.74
2022-11-02T23:58:02.712Z,102018.47
